createdAt,value
2018-04-10T00:00:55.503Z,15.72
2018-04-10T00:01:55.460Z,15.78
2018-04-10T00:02:55.415Z,15.78
2018-04-10T00:03:55.378Z,15.75
2018-04-10T00:04:55.329Z,15.75
2018-04-10T00:05:55.286Z,15.76
2018-04-10T00:06:55.242Z,15.75
2018-04-10T00:07:55.199Z,15.75
2018-04-10T00:08:55.158Z,15.72
2018-04-10T00:09:55.112Z,15.69
2018-04-10T00:10:55.068Z,15.67
2018-04-10T00:11:55.027Z,15.69
2018-04-10T00:12:54.984Z,15.65
2018-04-10T00:13:54.940Z,15.65
2018-04-10T00:14:54.896Z,15.65
2018-04-10T00:15:54.852Z,15.67
2018-04-10T00:16:54.809Z,15.68
2018-04-10T00:17:54.766Z,15.69
2018-04-10T00:18:54.722Z,15.67
2018-04-10T00:19:54.686Z,15.59
2018-04-10T00:20:54.635Z,15.60
2018-04-10T00:21:54.592Z,15.56
2018-04-10T00:22:54.548Z,15.54
2018-04-10T00:23:54.505Z,15.57
2018-04-10T00:24:54.462Z,15.57
2018-04-10T00:25:54.419Z,15.60
2018-04-10T00:26:54.375Z,15.56
2018-04-10T00:27:54.331Z,15.51
2018-04-10T00:28:54.289Z,15.51
2018-04-10T00:29:54.246Z,15.51
2018-04-10T00:30:54.201Z,15.47
2018-04-10T00:31:54.158Z,15.46
2018-04-10T00:32:54.114Z,15.47
2018-04-10T00:33:54.078Z,15.51
2018-04-10T00:34:54.027Z,15.46
2018-04-10T00:35:53.984Z,15.41
2018-04-10T00:36:53.941Z,15.47
2018-04-10T00:37:53.897Z,15.39
2018-04-10T00:38:53.853Z,15.44
2018-04-10T00:39:53.811Z,15.38
2018-04-10T00:40:53.767Z,15.38
2018-04-10T00:41:53.726Z,15.38
2018-04-10T00:42:53.680Z,15.31
2018-04-10T00:43:53.637Z,15.41
2018-04-10T00:44:53.593Z,15.35
2018-04-10T00:45:53.553Z,15.34
2018-04-10T00:46:53.506Z,15.36
2018-04-10T00:47:53.463Z,15.34
2018-04-10T00:48:53.419Z,15.46
2018-04-10T00:49:53.376Z,15.28
2018-04-10T00:50:53.332Z,15.32
2018-04-10T00:51:53.288Z,15.29
2018-04-10T00:52:53.246Z,15.31
2018-04-10T00:53:53.202Z,15.36
2018-04-10T00:54:53.158Z,15.34
2018-04-10T00:55:53.115Z,15.32
2018-04-10T00:56:53.073Z,15.28
2018-04-10T00:57:53.028Z,15.32
2018-04-10T00:58:52.984Z,15.32
2018-04-10T00:59:52.941Z,15.29
2018-04-10T01:00:52.898Z,15.27
2018-04-10T01:01:52.854Z,15.20
2018-04-10T01:02:52.810Z,15.29
2018-04-10T01:03:52.767Z,15.28
2018-04-10T01:04:52.723Z,15.31
2018-04-10T01:05:52.680Z,15.34
2018-04-10T01:06:52.640Z,15.31
2018-04-10T01:07:52.593Z,15.34
2018-04-10T01:08:52.549Z,15.29
2018-04-10T01:09:52.506Z,15.21
2018-04-10T01:10:52.461Z,15.17
2018-04-10T01:11:52.418Z,15.23
2018-04-10T01:12:52.374Z,15.20
2018-04-10T01:13:52.331Z,15.16
2018-04-10T01:14:52.286Z,15.14
2018-04-10T01:15:52.244Z,15.28
2018-04-10T01:16:52.201Z,15.16
2018-04-10T01:17:52.156Z,15.19
2018-04-10T01:18:52.115Z,15.16
2018-04-10T01:19:52.068Z,15.13
2018-04-10T01:20:52.024Z,15.07
2018-04-10T01:21:51.981Z,15.14
2018-04-10T01:22:51.937Z,15.16
2018-04-10T01:23:51.893Z,15.10
2018-04-10T01:24:51.849Z,15.13
2018-04-10T01:25:51.806Z,15.13
2018-04-10T01:26:51.761Z,15.06
2018-04-10T01:27:51.717Z,15.09
2018-04-10T01:28:51.673Z,15.16
2018-04-10T01:29:51.630Z,15.11
2018-04-10T01:30:51.585Z,15.10
2018-04-10T01:31:51.542Z,15.07
2018-04-10T01:32:51.498Z,15.01
2018-04-10T01:33:51.454Z,15.09
2018-04-10T01:34:51.409Z,15.06
2018-04-10T01:35:51.366Z,15.09
2018-04-10T01:36:51.326Z,14.94
2018-04-10T01:37:51.278Z,14.98
2018-04-10T01:38:51.235Z,14.99
2018-04-10T01:39:51.190Z,15.01
2018-04-10T01:40:51.146Z,14.99
2018-04-10T01:41:51.102Z,14.92
2018-04-10T01:42:51.057Z,14.95
2018-04-10T01:43:51.015Z,15.03
2018-04-10T01:44:50.970Z,14.98
2018-04-10T01:45:50.926Z,15.02
2018-04-10T01:46:50.881Z,14.94
2018-04-10T01:47:50.838Z,14.94
2018-04-10T01:48:50.798Z,14.92
2018-04-10T01:49:50.752Z,15.07
2018-04-10T01:50:50.709Z,15.02
2018-04-10T01:51:50.662Z,14.99
2018-04-10T01:52:50.620Z,15.06
2018-04-10T01:53:50.574Z,14.98
2018-04-10T01:54:50.529Z,14.95
2018-04-10T01:55:50.490Z,14.98
2018-04-10T01:56:50.444Z,14.99
2018-04-10T01:57:50.398Z,14.99
2018-04-10T01:58:50.354Z,14.89
2018-04-10T01:59:50.309Z,14.88
2018-04-10T02:00:50.266Z,14.84
2018-04-10T02:01:50.222Z,14.84
2018-04-10T02:02:50.180Z,14.84
2018-04-10T02:03:50.132Z,14.84
2018-04-10T02:04:50.091Z,14.91
2018-04-10T02:05:50.044Z,14.84
2018-04-10T02:06:50.000Z,14.88
2018-04-10T02:07:49.955Z,14.83
2018-04-10T02:08:49.912Z,14.72
2018-04-10T02:09:49.868Z,14.80
2018-04-10T02:10:49.823Z,14.70
2018-04-10T02:11:49.779Z,14.69
2018-04-10T02:12:49.734Z,14.69
2018-04-10T02:13:49.692Z,14.68
2018-04-10T02:14:49.645Z,14.64
2018-04-10T02:15:49.601Z,14.55
2018-04-10T02:16:49.558Z,14.55
2018-04-10T02:17:49.513Z,14.55
2018-04-10T02:18:49.468Z,14.51
2018-04-10T02:19:49.425Z,14.46
2018-04-10T02:20:49.380Z,14.50
2018-04-10T02:21:49.336Z,14.47
2018-04-10T02:22:49.292Z,14.43
2018-04-10T02:23:49.249Z,14.50
2018-04-10T02:24:49.204Z,14.46
2018-04-10T02:25:49.159Z,14.50
2018-04-10T02:26:49.113Z,14.43
2018-04-10T02:27:49.069Z,14.42
2018-04-10T02:28:49.025Z,14.36
2018-04-10T02:29:48.982Z,14.35
2018-04-10T02:30:48.936Z,14.35
2018-04-10T02:31:48.892Z,14.33
2018-04-10T02:32:48.847Z,14.25
2018-04-10T02:33:48.803Z,14.27
2018-04-10T02:34:48.758Z,14.27
2018-04-10T02:35:48.713Z,14.32
2018-04-10T02:36:48.669Z,14.25
2018-04-10T02:37:48.625Z,14.22
2018-04-10T02:38:48.634Z,14.25
2018-04-10T02:39:48.535Z,14.21
2018-04-10T02:40:48.491Z,14.24
2018-04-10T02:41:48.447Z,14.24
2018-04-10T02:42:48.401Z,14.25
2018-04-10T02:43:48.358Z,14.25
2018-04-10T02:44:48.317Z,14.22
2018-04-10T02:45:48.269Z,14.17
2018-04-10T02:46:48.227Z,14.24
2018-04-10T02:47:48.180Z,14.12
2018-04-10T02:48:48.136Z,14.20
2018-04-10T02:49:48.091Z,14.17
2018-04-10T02:50:48.045Z,14.09
2018-04-10T02:51:48.005Z,14.10
2018-04-10T02:52:47.957Z,14.07
2018-04-10T02:53:47.915Z,14.17
2018-04-10T02:54:47.868Z,14.06
2018-04-10T02:55:47.823Z,14.12
2018-04-10T02:56:47.779Z,14.09
2018-04-10T02:57:47.735Z,14.04
2018-04-10T02:58:47.690Z,13.99
2018-04-10T02:59:47.647Z,13.99
2018-04-10T03:00:47.601Z,14.00
2018-04-10T03:01:47.559Z,14.02
2018-04-10T03:02:47.512Z,14.09
2018-04-10T03:03:47.468Z,14.02
2018-04-10T03:04:47.424Z,14.04
2018-04-10T03:05:47.381Z,14.03
2018-04-10T03:06:47.334Z,14.03
2018-04-10T03:07:47.290Z,14.06
2018-04-10T03:08:47.245Z,14.02
2018-04-10T03:09:47.201Z,13.91
2018-04-10T03:10:47.155Z,14.02
2018-04-10T03:11:47.110Z,13.97
2018-04-10T03:12:47.068Z,13.96
2018-04-10T03:13:47.022Z,13.95
2018-04-10T03:14:46.976Z,13.92
2018-04-10T03:15:46.932Z,13.89
2018-04-10T03:16:46.889Z,13.96
2018-04-10T03:17:46.843Z,13.87
2018-04-10T03:18:46.797Z,13.79
2018-04-10T03:19:46.753Z,13.82
2018-04-10T03:20:46.731Z,13.82
2018-04-10T03:21:46.664Z,13.81
2018-04-10T03:22:46.619Z,13.78
2018-04-10T03:23:46.575Z,13.78
2018-04-10T03:24:46.530Z,13.79
2018-04-10T03:25:46.485Z,13.75
2018-04-10T03:26:46.440Z,13.77
2018-04-10T03:27:46.395Z,13.75
2018-04-10T03:28:46.351Z,13.69
2018-04-10T03:29:46.306Z,13.67
2018-04-10T03:30:46.261Z,13.64
2018-04-10T03:31:46.216Z,13.66
2018-04-10T03:32:46.172Z,13.69
2018-04-10T03:33:46.128Z,13.69
2018-04-10T03:34:46.083Z,13.69
2018-04-10T03:35:46.038Z,13.73
2018-04-10T03:36:46.038Z,13.67
2018-04-10T03:37:45.949Z,13.71
2018-04-10T03:38:45.903Z,13.67
2018-04-10T03:39:45.859Z,13.62
2018-04-10T03:40:45.819Z,13.64
2018-04-10T03:41:45.769Z,13.63
2018-04-10T03:42:45.724Z,13.70
2018-04-10T03:43:45.680Z,13.63
2018-04-10T03:44:45.635Z,13.64
2018-04-10T03:45:45.590Z,13.66
2018-04-10T03:46:45.544Z,13.67
2018-04-10T03:47:45.500Z,13.64
2018-04-10T03:48:45.455Z,13.62
2018-04-10T03:49:45.411Z,13.62
2018-04-10T03:50:45.415Z,13.63
2018-04-10T03:51:45.321Z,13.60
2018-04-10T03:52:45.276Z,13.60
2018-04-10T03:53:45.231Z,13.64
2018-04-10T03:54:45.185Z,13.62
2018-04-10T03:55:45.196Z,13.57
2018-04-10T03:56:45.095Z,13.51
2018-04-10T03:57:45.051Z,13.59
2018-04-10T03:58:45.005Z,13.64
2018-04-10T03:59:44.960Z,13.63
2018-04-10T04:00:44.916Z,13.59
2018-04-10T04:01:44.871Z,13.62
2018-04-10T04:02:44.825Z,13.62
2018-04-10T04:03:44.780Z,13.67
2018-04-10T04:04:44.735Z,13.69
2018-04-10T04:05:44.690Z,13.71
2018-04-10T04:06:44.651Z,13.63
2018-04-10T04:07:44.600Z,13.69
2018-04-10T04:08:44.557Z,13.71
2018-04-10T04:09:44.510Z,13.69
2018-04-10T04:10:44.564Z,13.63
2018-04-10T04:11:44.419Z,13.62
2018-04-10T04:12:44.375Z,13.66
2018-04-10T04:13:44.329Z,13.70
2018-04-10T04:14:44.283Z,13.62
2018-04-10T04:15:44.239Z,13.64
2018-04-10T04:16:44.195Z,13.67
2018-04-10T04:17:44.150Z,13.59
2018-04-10T04:18:44.104Z,13.64
2018-04-10T04:19:44.058Z,13.64
2018-04-10T04:20:44.014Z,13.63
2018-04-10T04:21:43.972Z,13.63
2018-04-10T04:22:43.923Z,13.62
2018-04-10T04:23:43.878Z,13.63
2018-04-10T04:24:43.833Z,13.67
2018-04-10T04:25:43.788Z,13.71
2018-04-10T04:26:43.742Z,13.71
2018-04-10T04:27:43.697Z,13.66
2018-04-10T04:28:43.652Z,13.70
2018-04-10T04:29:43.614Z,13.67
2018-04-10T04:30:43.561Z,13.71
2018-04-10T04:31:43.516Z,13.67
2018-04-10T04:32:43.472Z,13.75
2018-04-10T04:33:43.426Z,13.70
2018-04-10T04:34:43.380Z,13.73
2018-04-10T04:35:43.334Z,13.77
2018-04-10T04:36:43.291Z,13.71
2018-04-10T04:37:43.246Z,13.75
2018-04-10T04:38:43.200Z,13.73
2018-04-10T04:39:43.159Z,13.77
2018-04-10T04:40:43.111Z,13.75
2018-04-10T04:41:43.067Z,13.81
2018-04-10T04:42:43.019Z,13.81
2018-04-10T04:43:42.975Z,13.75
2018-04-10T04:44:42.930Z,13.77
2018-04-10T04:45:42.885Z,13.82
2018-04-10T04:46:42.840Z,13.82
2018-04-10T04:47:42.796Z,13.79
2018-04-10T04:48:42.750Z,13.84
2018-04-10T04:49:42.705Z,13.82
2018-04-10T04:50:42.659Z,13.79
2018-04-10T04:51:42.615Z,13.85
2018-04-10T04:52:42.570Z,13.92
2018-04-10T04:53:42.525Z,13.92
2018-04-10T04:54:42.479Z,13.92
2018-04-10T04:55:42.435Z,14.00
2018-04-10T04:56:42.390Z,14.02
2018-04-10T04:57:42.346Z,13.97
2018-04-10T04:58:42.300Z,14.03
2018-04-10T04:59:42.255Z,13.97
2018-04-10T05:00:42.210Z,14.09
2018-04-10T05:01:42.166Z,14.09
2018-04-10T05:02:42.120Z,14.14
2018-04-10T05:03:42.075Z,14.06
2018-04-10T05:04:42.033Z,14.10
2018-04-10T05:05:41.989Z,14.14
2018-04-10T05:06:41.941Z,14.28
2018-04-10T05:07:41.896Z,14.29
2018-04-10T05:08:41.851Z,14.21
2018-04-10T05:09:41.807Z,14.33
2018-04-10T05:10:41.763Z,14.27
2018-04-10T05:11:41.717Z,14.28
2018-04-10T05:12:41.672Z,14.37
2018-04-10T05:13:41.628Z,14.40
2018-04-10T05:14:41.584Z,14.39
2018-04-10T05:15:41.538Z,14.45
2018-04-10T05:16:41.493Z,14.42
2018-04-10T05:17:41.449Z,14.47
2018-04-10T05:18:41.404Z,14.47
2018-04-10T05:19:41.358Z,14.51
2018-04-10T05:20:41.315Z,14.60
2018-04-10T05:21:41.321Z,14.55
2018-04-10T05:22:41.225Z,14.61
2018-04-10T05:23:41.184Z,14.72
2018-04-10T05:24:41.137Z,14.65
2018-04-10T05:25:41.096Z,14.72
2018-04-10T05:26:41.048Z,14.80
2018-04-10T05:27:41.006Z,14.86
2018-04-10T05:28:40.960Z,14.86
2018-04-10T05:29:40.916Z,14.86
2018-04-10T05:30:40.871Z,14.91
2018-04-10T05:31:40.827Z,14.95
2018-04-10T05:32:40.783Z,14.98
2018-04-10T05:33:40.739Z,15.09
2018-04-10T05:34:40.694Z,15.10
2018-04-10T05:35:40.662Z,15.16
2018-04-10T05:36:40.607Z,15.20
2018-04-10T05:37:40.564Z,15.32
2018-04-10T05:38:40.518Z,15.35
2018-04-10T05:39:40.475Z,15.36
2018-04-10T05:40:40.431Z,15.31
2018-04-10T05:41:40.391Z,15.38
2018-04-10T05:42:40.343Z,15.36
2018-04-10T05:43:40.303Z,15.43
2018-04-10T05:44:40.257Z,15.49
2018-04-10T05:45:40.213Z,15.51
2018-04-10T05:46:40.168Z,15.53
2018-04-10T05:47:40.124Z,15.69
2018-04-10T05:48:40.081Z,15.76
2018-04-10T05:49:40.039Z,16.08
2018-04-10T05:50:39.993Z,16.45
2018-04-10T05:51:39.950Z,16.88
2018-04-10T05:52:39.907Z,17.38
2018-04-10T05:53:39.864Z,17.92
2018-04-10T05:54:39.820Z,18.39
2018-04-10T05:55:39.776Z,18.72
2018-04-10T05:56:39.734Z,18.98
2018-04-10T05:57:39.691Z,19.32
2018-04-10T05:58:39.667Z,19.55
2018-04-10T05:59:39.606Z,19.71
2018-04-10T06:00:39.564Z,19.80
2018-04-10T06:01:39.522Z,20.01
2018-04-10T06:02:39.480Z,20.35
2018-04-10T06:03:39.438Z,20.70
2018-04-10T06:04:39.400Z,21.01
2018-04-10T06:05:39.357Z,21.29
2018-04-10T06:06:39.364Z,21.42
2018-04-10T06:07:39.274Z,21.44
2018-04-10T06:08:39.233Z,21.54
2018-04-10T06:09:39.192Z,21.40
2018-04-10T06:10:39.150Z,21.35
2018-04-10T06:11:39.110Z,21.24
2018-04-10T06:12:39.070Z,21.40
2018-04-10T06:13:39.030Z,21.74
2018-04-10T06:14:38.989Z,22.10
2018-04-10T06:15:38.948Z,22.45
2018-04-10T06:16:38.909Z,22.76
2018-04-10T06:17:38.870Z,22.94
2018-04-10T06:18:38.829Z,23.25
2018-04-10T06:19:38.790Z,23.40
2018-04-10T06:20:38.752Z,23.57
2018-04-10T06:21:38.713Z,23.54
2018-04-10T06:22:38.672Z,23.70
2018-04-10T06:23:38.635Z,24.03
2018-04-10T06:24:38.596Z,24.12
2018-04-10T06:25:38.558Z,24.55
2018-04-10T06:26:38.517Z,24.80
2018-04-10T06:27:38.483Z,24.87
2018-04-10T06:28:38.442Z,25.17
2018-04-10T06:29:38.405Z,25.39
2018-04-10T06:30:38.366Z,25.46
2018-04-10T06:31:38.329Z,25.58
2018-04-10T06:32:38.292Z,25.61
2018-04-10T06:33:38.256Z,25.64
2018-04-10T06:34:38.217Z,25.85
2018-04-10T06:35:38.181Z,26.09
2018-04-10T06:36:38.144Z,26.36
2018-04-10T06:37:38.109Z,26.62
2018-04-10T06:38:38.070Z,26.75
2018-04-10T06:39:38.035Z,26.66
2018-04-10T06:40:37.999Z,26.69
2018-04-10T06:41:37.963Z,26.88
2018-04-10T06:42:37.928Z,27.10
2018-04-10T06:43:37.892Z,27.49
2018-04-10T06:44:37.857Z,27.46
2018-04-10T06:45:37.822Z,27.62
2018-04-10T06:46:37.788Z,27.94
2018-04-10T06:47:37.784Z,28.06
2018-04-10T06:48:37.714Z,27.99
2018-04-10T06:49:37.679Z,27.96
2018-04-10T06:50:37.643Z,28.04
2018-04-10T06:51:37.608Z,27.93
2018-04-10T06:52:37.573Z,27.79
2018-04-10T06:53:37.539Z,27.79
2018-04-10T06:54:37.503Z,28.00
2018-04-10T06:55:37.469Z,28.31
2018-04-10T06:56:37.434Z,28.61
2018-04-10T06:57:37.401Z,28.61
2018-04-10T06:58:37.366Z,28.61
2018-04-10T06:59:37.335Z,28.56
2018-04-10T07:00:37.299Z,28.70
2018-04-10T07:01:37.310Z,28.77
2018-04-10T07:02:37.229Z,28.78
2018-04-10T07:03:37.196Z,28.74
2018-04-10T07:04:37.162Z,29.18
2018-04-10T07:05:37.179Z,29.36
2018-04-10T07:06:37.094Z,29.34
2018-04-10T07:07:37.060Z,29.08
2018-04-10T07:08:37.028Z,28.88
2018-04-10T07:09:36.994Z,28.30
2018-04-10T07:10:36.960Z,28.22
2018-04-10T07:11:36.927Z,28.51
2018-04-10T07:12:36.894Z,28.81
2018-04-10T07:13:36.861Z,29.14
2018-04-10T07:14:36.826Z,29.00
2018-04-10T07:15:36.800Z,28.93
2018-04-10T07:16:36.761Z,28.92
2018-04-10T07:17:36.726Z,29.21
2018-04-10T07:18:36.691Z,29.36
2018-04-10T07:19:36.658Z,29.63
2018-04-10T07:20:36.631Z,30.02
2018-04-10T07:21:36.593Z,30.17
2018-04-10T07:22:36.559Z,30.15
2018-04-10T07:23:36.532Z,30.29
2018-04-10T07:24:36.493Z,30.76
2018-04-10T07:25:36.461Z,30.89
2018-04-10T07:26:36.429Z,31.16
2018-04-10T07:27:36.402Z,31.28
2018-04-10T07:28:36.365Z,31.50
2018-04-10T07:29:36.330Z,31.72
2018-04-10T07:30:36.297Z,31.95
2018-04-10T07:31:36.264Z,32.22
2018-04-10T07:32:36.234Z,32.41
2018-04-10T07:33:36.202Z,32.66
2018-04-10T07:34:36.169Z,33.00
2018-04-10T07:35:36.138Z,33.00
2018-04-10T07:36:36.107Z,32.96
2018-04-10T07:37:36.076Z,33.16
2018-04-10T07:38:36.046Z,33.09
2018-04-10T07:39:36.014Z,32.66
2018-04-10T07:40:35.983Z,32.47
2018-04-10T07:41:35.951Z,32.37
2018-04-10T07:42:35.919Z,32.22
2018-04-10T07:43:35.888Z,32.08
2018-04-10T07:44:35.857Z,31.96
2018-04-10T07:45:35.825Z,31.73
2018-04-10T07:46:35.793Z,31.68
2018-04-10T07:47:35.762Z,31.68
2018-04-10T07:48:35.732Z,31.46
2018-04-10T07:49:35.702Z,31.53
2018-04-10T07:50:35.669Z,31.84
2018-04-10T07:51:35.637Z,32.26
2018-04-10T07:52:35.606Z,32.60
2018-04-10T07:53:35.675Z,32.79
2018-04-10T07:54:35.544Z,32.84
2018-04-10T07:55:35.512Z,32.72
2018-04-10T07:56:35.482Z,32.63
2018-04-10T07:57:35.451Z,32.38
2018-04-10T07:58:35.463Z,32.35
2018-04-10T07:59:35.388Z,32.74
2018-04-10T08:00:35.358Z,33.12
2018-04-10T08:01:35.326Z,33.66
2018-04-10T08:02:35.304Z,34.22
2018-04-10T08:03:35.265Z,34.80
2018-04-10T08:04:35.285Z,35.47
2018-04-10T08:05:35.208Z,35.96
2018-04-10T08:06:35.173Z,36.37
2018-04-10T08:07:35.144Z,36.43
2018-04-10T08:08:35.164Z,36.46
2018-04-10T08:09:35.084Z,36.81
2018-04-10T08:10:35.053Z,36.93
2018-04-10T08:11:35.024Z,37.43
2018-04-10T08:12:34.994Z,37.67
2018-04-10T08:13:34.967Z,37.32
2018-04-10T08:14:34.942Z,36.91
2018-04-10T08:15:34.906Z,36.85
2018-04-10T08:16:34.878Z,36.98
2018-04-10T08:17:34.850Z,37.00
2018-04-10T08:18:34.821Z,37.00
2018-04-10T08:19:34.789Z,37.28
2018-04-10T08:20:34.762Z,37.56
2018-04-10T08:21:34.733Z,37.81
2018-04-10T08:22:34.704Z,38.12
2018-04-10T08:23:34.677Z,38.40
2018-04-10T08:24:34.648Z,38.59
2018-04-10T08:25:34.619Z,38.66
2018-04-10T08:26:34.591Z,38.71
2018-04-10T08:27:34.562Z,38.63
2018-04-10T08:28:34.535Z,38.35
2018-04-10T08:29:34.507Z,38.50
2018-04-10T08:30:34.479Z,38.76
2018-04-10T08:31:34.452Z,38.79
2018-04-10T08:32:34.424Z,38.60
2018-04-10T08:33:34.397Z,38.38
2018-04-10T08:34:34.370Z,38.03
2018-04-10T08:35:34.343Z,37.64
2018-04-10T08:36:34.315Z,37.28
2018-04-10T08:37:34.289Z,37.13
2018-04-10T08:38:34.260Z,36.88
2018-04-10T08:39:34.232Z,36.81
2018-04-10T08:40:34.205Z,36.72
2018-04-10T08:41:34.177Z,36.76
2018-04-10T08:42:34.150Z,36.59
2018-04-10T08:43:34.122Z,36.66
2018-04-10T08:44:34.094Z,36.85
2018-04-10T08:45:34.067Z,36.87
2018-04-10T08:46:34.038Z,37.12
2018-04-10T08:47:34.009Z,37.43
2018-04-10T08:48:33.983Z,37.81
2018-04-10T08:49:33.955Z,38.38
2018-04-10T08:50:33.944Z,38.96
2018-04-10T08:51:33.901Z,39.25
2018-04-10T08:52:33.874Z,39.55
2018-04-10T08:53:33.847Z,39.60
2018-04-10T08:54:33.820Z,39.59
2018-04-10T08:55:33.793Z,39.26
2018-04-10T08:56:33.766Z,39.01
2018-04-10T08:57:33.741Z,38.75
2018-04-10T08:58:33.713Z,38.37
2018-04-10T08:59:33.688Z,38.26
2018-04-10T09:00:33.660Z,38.23
2018-04-10T09:01:33.637Z,38.26
2018-04-10T09:02:33.607Z,37.84
2018-04-10T09:03:33.580Z,37.70
2018-04-10T09:04:33.554Z,38.09
2018-04-10T09:05:33.531Z,38.32
2018-04-10T09:06:33.501Z,38.61
2018-04-10T09:07:33.475Z,38.84
2018-04-10T09:08:33.449Z,38.88
2018-04-10T09:09:33.423Z,39.18
2018-04-10T09:10:33.448Z,39.18
2018-04-10T09:11:33.369Z,39.30
2018-04-10T09:12:33.346Z,38.91
2018-04-10T09:13:33.319Z,38.76
2018-04-10T09:14:33.291Z,38.88
2018-04-10T09:15:33.266Z,38.57
2018-04-10T09:16:33.239Z,37.94
2018-04-10T09:17:33.214Z,37.93
2018-04-10T09:18:33.186Z,38.01
2018-04-10T09:19:33.164Z,38.31
2018-04-10T09:20:33.134Z,38.50
2018-04-10T09:21:33.108Z,38.25
2018-04-10T09:22:33.080Z,38.12
2018-04-10T09:23:33.103Z,37.98
2018-04-10T09:24:33.027Z,37.94
2018-04-10T09:25:33.001Z,37.89
2018-04-10T09:26:32.973Z,38.01
2018-04-10T09:27:32.945Z,38.18
2018-04-10T09:28:32.920Z,37.91
2018-04-10T09:29:32.942Z,37.25
2018-04-10T09:30:32.864Z,36.43
2018-04-10T09:31:32.835Z,35.40
2018-04-10T09:32:32.809Z,34.69
2018-04-10T09:33:32.881Z,34.03
2018-04-10T09:34:32.753Z,33.90
2018-04-10T09:35:32.724Z,33.97
2018-04-10T09:36:32.697Z,34.08
2018-04-10T09:37:32.667Z,34.53
2018-04-10T09:38:32.637Z,35.09
2018-04-10T09:39:32.658Z,35.50
2018-04-10T09:40:32.579Z,35.59
2018-04-10T09:41:32.550Z,35.68
2018-04-10T09:42:32.521Z,35.62
2018-04-10T09:43:32.493Z,35.25
2018-04-10T09:44:32.464Z,34.78
2018-04-10T09:45:32.434Z,34.08
2018-04-10T09:46:32.406Z,33.49
2018-04-10T09:47:32.377Z,32.87
2018-04-10T09:48:32.347Z,32.26
2018-04-10T09:49:32.317Z,31.68
2018-04-10T09:50:32.286Z,31.09
2018-04-10T09:51:32.257Z,30.65
2018-04-10T09:52:32.226Z,30.24
2018-04-10T09:53:32.196Z,29.90
2018-04-10T09:54:32.163Z,29.52
2018-04-10T09:55:32.133Z,29.08
2018-04-10T09:56:32.100Z,28.66
2018-04-10T09:57:32.068Z,28.29
2018-04-10T09:58:32.035Z,27.94
2018-04-10T09:59:32.005Z,27.70
2018-04-10T10:00:32.025Z,27.39
2018-04-10T10:01:31.937Z,27.22
2018-04-10T10:02:31.903Z,27.03
2018-04-10T10:03:31.869Z,26.84
2018-04-10T10:04:31.837Z,26.60
2018-04-10T10:05:31.803Z,26.29
2018-04-10T10:06:31.772Z,26.29
2018-04-10T10:07:31.734Z,26.15
2018-04-10T10:08:31.701Z,26.17
2018-04-10T10:09:31.666Z,26.13
2018-04-10T10:10:31.631Z,26.12
2018-04-10T10:11:31.596Z,26.10
2018-04-10T10:12:31.561Z,26.02
2018-04-10T10:13:31.527Z,25.88
2018-04-10T10:14:31.491Z,25.82
2018-04-10T10:15:31.456Z,25.77
2018-04-10T10:16:31.420Z,25.85
2018-04-10T10:17:31.385Z,25.73
2018-04-10T10:18:31.348Z,25.61
2018-04-10T10:19:31.313Z,25.61
2018-04-10T10:20:31.277Z,25.51
2018-04-10T10:21:31.241Z,25.43
2018-04-10T10:22:31.204Z,25.17
2018-04-10T10:23:31.168Z,25.18
2018-04-10T10:24:31.132Z,25.09
2018-04-10T10:25:31.095Z,25.08
2018-04-10T10:26:31.058Z,25.17
2018-04-10T10:27:31.022Z,25.35
2018-04-10T10:28:30.985Z,25.36
2018-04-10T10:29:30.949Z,25.50
2018-04-10T10:30:30.911Z,25.46
2018-04-10T10:31:30.875Z,25.51
2018-04-10T10:32:30.839Z,25.58
2018-04-10T10:33:30.808Z,25.60
2018-04-10T10:34:30.764Z,25.55
2018-04-10T10:35:30.728Z,25.52
2018-04-10T10:36:30.695Z,25.57
2018-04-10T10:37:30.655Z,25.52
2018-04-10T10:38:30.617Z,25.52
2018-04-10T10:39:30.585Z,25.51
2018-04-10T10:40:30.545Z,25.46
2018-04-10T10:41:30.561Z,25.52
2018-04-10T10:42:30.470Z,25.51
2018-04-10T10:43:30.484Z,25.42
2018-04-10T10:44:30.397Z,25.51
2018-04-10T10:45:30.361Z,25.51
2018-04-10T10:46:30.323Z,25.45
2018-04-10T10:47:30.286Z,25.52
2018-04-10T10:48:30.249Z,25.43
2018-04-10T10:49:30.213Z,25.36
2018-04-10T10:50:30.174Z,25.18
2018-04-10T10:51:30.139Z,25.08
2018-04-10T10:52:30.102Z,25.03
2018-04-10T10:53:30.065Z,25.14
2018-04-10T10:54:30.028Z,25.24
2018-04-10T10:55:29.990Z,25.13
2018-04-10T10:56:29.954Z,25.21
2018-04-10T10:57:29.917Z,25.24
2018-04-10T10:58:29.879Z,25.30
2018-04-10T10:59:29.842Z,25.27
2018-04-10T11:00:29.805Z,25.17
2018-04-10T11:01:29.768Z,25.23
2018-04-10T11:02:29.731Z,25.18
2018-04-10T11:03:29.694Z,25.10
2018-04-10T11:04:29.656Z,25.05
2018-04-10T11:05:29.619Z,25.03
2018-04-10T11:06:29.625Z,24.99
2018-04-10T11:07:29.544Z,25.05
2018-04-10T11:08:29.506Z,25.02
2018-04-10T11:09:29.469Z,24.96
2018-04-10T11:10:29.431Z,24.93
2018-04-10T11:11:29.393Z,24.91
2018-04-10T11:12:29.356Z,25.02
2018-04-10T11:13:29.318Z,24.96
2018-04-10T11:14:29.280Z,24.99
2018-04-10T11:15:29.244Z,24.93
2018-04-10T11:16:29.205Z,24.90
2018-04-10T11:17:29.167Z,24.87
2018-04-10T11:18:29.130Z,24.83
2018-04-10T11:19:29.091Z,24.78
2018-04-10T11:20:29.092Z,24.95
2018-04-10T11:21:29.016Z,24.99
2018-04-10T11:22:28.979Z,25.02
2018-04-10T11:23:28.940Z,24.96
2018-04-10T11:24:28.903Z,25.02
2018-04-10T11:25:28.866Z,24.91
2018-04-10T11:26:28.827Z,24.88
2018-04-10T11:27:28.790Z,24.77
2018-04-10T11:28:28.753Z,24.78
2018-04-10T11:29:28.717Z,24.67
2018-04-10T11:30:28.676Z,24.68
2018-04-10T11:31:28.644Z,24.78
2018-04-10T11:32:28.601Z,24.83
2018-04-10T11:33:28.570Z,24.77
2018-04-10T11:34:28.525Z,24.87
2018-04-10T11:35:28.491Z,24.88
2018-04-10T11:36:28.458Z,24.95
2018-04-10T11:37:28.412Z,24.99
2018-04-10T11:38:28.374Z,24.96
2018-04-10T11:39:28.336Z,24.88
2018-04-10T11:40:28.303Z,24.90
2018-04-10T11:41:28.261Z,24.93
2018-04-10T11:42:28.223Z,24.98
2018-04-10T11:43:28.185Z,24.80
2018-04-10T11:44:28.147Z,24.90
2018-04-10T11:45:28.110Z,24.95
2018-04-10T11:46:28.072Z,24.87
2018-04-10T11:47:28.046Z,24.85
2018-04-10T11:48:27.996Z,24.95
2018-04-10T11:49:27.958Z,25.00
2018-04-10T11:50:27.923Z,24.88
2018-04-10T11:51:27.932Z,24.99
2018-04-10T11:52:27.844Z,24.96
2018-04-10T11:53:27.806Z,25.02
2018-04-10T11:54:27.767Z,24.95
2018-04-10T11:55:27.729Z,24.96
2018-04-10T11:56:27.691Z,25.05
2018-04-10T11:57:27.654Z,25.02
2018-04-10T11:58:27.616Z,24.99
2018-04-10T11:59:27.578Z,25.03
2018-04-10T12:00:27.549Z,25.10
2018-04-10T12:01:27.502Z,25.08
2018-04-10T12:02:27.464Z,25.08
2018-04-10T12:03:27.426Z,25.15
2018-04-10T12:04:27.388Z,25.15
2018-04-10T12:05:27.355Z,25.06
2018-04-10T12:06:27.312Z,25.06
2018-04-10T12:07:27.275Z,25.05
2018-04-10T12:08:27.240Z,25.02
2018-04-10T12:09:27.199Z,25.10
2018-04-10T12:10:27.161Z,25.15
2018-04-10T12:11:27.122Z,25.09
2018-04-10T12:12:27.085Z,25.05
2018-04-10T12:13:27.051Z,25.05
2018-04-10T12:14:27.009Z,25.03
2018-04-10T12:15:26.971Z,25.00
2018-04-10T12:16:26.934Z,24.98
2018-04-10T12:17:26.896Z,24.96
2018-04-10T12:18:26.858Z,24.87
2018-04-10T12:19:26.820Z,24.99
2018-04-10T12:20:26.783Z,24.91
2018-04-10T12:21:26.744Z,24.85
2018-04-10T12:22:26.706Z,24.87
2018-04-10T12:23:26.668Z,24.85
2018-04-10T12:24:26.630Z,24.84
2018-04-10T12:25:26.592Z,24.95
2018-04-10T12:26:26.554Z,24.91
2018-04-10T12:27:26.516Z,24.91
2018-04-10T12:28:26.488Z,24.87
2018-04-10T12:29:26.513Z,24.91
2018-04-10T12:30:26.402Z,24.76
2018-04-10T12:31:26.364Z,24.90
2018-04-10T12:32:26.327Z,24.85
2018-04-10T12:33:26.289Z,24.95
2018-04-10T12:34:26.250Z,24.91
2018-04-10T12:35:26.213Z,24.95
2018-04-10T12:36:26.174Z,24.95
2018-04-10T12:37:26.137Z,24.93
2018-04-10T12:38:26.098Z,24.99
2018-04-10T12:39:26.060Z,24.96
2018-04-10T12:40:26.072Z,24.99
2018-04-10T12:41:25.985Z,24.95
2018-04-10T12:42:25.946Z,24.99
2018-04-10T12:43:25.907Z,24.98
2018-04-10T12:44:25.870Z,24.99
2018-04-10T12:45:25.832Z,24.91
2018-04-10T12:46:25.794Z,24.93
2018-04-10T12:47:25.756Z,24.87
2018-04-10T12:48:25.718Z,24.95
2018-04-10T12:49:25.681Z,24.85
2018-04-10T12:50:25.644Z,24.85
2018-04-10T12:51:25.604Z,24.91
2018-04-10T12:52:25.565Z,24.81